Atalanta, Brazil
Current Conditions -  °F | °C
As of 12:00 PM on Sunday 23 Nov 2014 (Local Time) from SBFL Reporting Station
Scattered Clouds Scattered Clouds  
Wind Chill: 77°   Ceiling: Unl
Heat Index: 79°   Visibility: 6mi
Dew Point: 61°   Wind: 15mph
Humidity: 57%   Direction: 160°SSE
Pressure: 29.94"   Gusts: NA
Location:  27.42°S, 49.78°W
Report Text: SBFL 231400Z 16013KT 9999 SCT015 25/16 Q1014
Loading
Personal Weather Stations






























Interactive Weather Map New forecast layout! Learn more

10-Day Weather Forecast

Advertisements
Track Severe Weather on mobile